Terminal Aerodrome Forecast
Issued by NWS

Home | Current Version | Previous Version | Text Only | Print | Product List | Glossary On
Versions: 1 2 3 4 5 6 7 8 9 10 11 12 13 14 15 16 17 18 19 20 21 22 23 24 25 26 27 28 29 30 31 32 33 34 35 36 37 38 39 40
000
FTUS43 KDTX 281900 AAA
TAFYIP
TAF AMD
KYIP 281934Z 2820/2918 33012KT P6SM BKN050
     FM282200 33010KT P6SM SCT050
     FM290600 30004KT P6SM SCT050 BKN120 OVC250
     FM291400 28010KT P6SM BKN060 BKN120 OVC250=

USA.gov is the U.S. government's official web portal to all federal, state and local government web resources and services.